RYR64LV EGSS-EDDK
Flight info
| Callsign | RYR64LV |
|---|---|
| Flight time | 0h 47m |
| Altitude | 23000 |
| Route | CLN M84 KONAN UL607 SPI T857 DENOV T861 ERUKI T856 DEPOK DEPOK2V |
| Aircraft | B738/M-SDE2E3FGHIRWXY/LB1 |
Departure
| Time | 2026-05-04 07:54 |
|---|---|
| Airport | London Stansted Airport (EGSS) |
Arrival
| Time | 2026-05-04 08:41 |
|---|---|
| Airport | Cologne Bonn Airport (EDDK) |
| Time | Latitude | Longitude | Altitude | Speed | Heading |
|---|---|---|---|---|---|
| 2026-05-04 07:28 | 51.89597 | 0.26628 | 351 ft | 0 kts | 42° |
| 2026-05-04 07:42 | 51.89584 | 0.26609 | 361 ft | 4 kts | 42° |
| 2026-05-04 07:43 | 51.89565 | 0.26584 | 359 ft | 4 kts | 8° |
| 2026-05-04 07:43 | 51.89548 | 0.26592 | 358 ft | 1 kts | 313° |
| 2026-05-04 07:43 | 51.89534 | 0.26616 | 361 ft | 1 kts | 313° |
| 2026-05-04 07:45 | 51.89537 | 0.26611 | 361 ft | 3 kts | 313° |
| 2026-05-04 07:46 | 51.89581 | 0.26535 | 358 ft | 12 kts | 320° |
| 2026-05-04 07:46 | 51.89647 | 0.26429 | 353 ft | 13 kts | 317° |
| 2026-05-04 07:46 | 51.89720 | 0.26299 | 358 ft | 13 kts | 311° |
| 2026-05-04 07:46 | 51.89764 | 0.26167 | 351 ft | 14 kts | 251° |
| 2026-05-04 07:47 | 51.89690 | 0.26045 | 351 ft | 17 kts | 224° |
| 2026-05-04 07:47 | 51.89583 | 0.25885 | 355 ft | 24 kts | 223° |
| 2026-05-04 07:47 | 51.89474 | 0.25726 | 356 ft | 22 kts | 225° |
| 2026-05-04 07:49 | 51.88684 | 0.24541 | 351 ft | 22 kts | 226° |
| 2026-05-04 07:49 | 51.88574 | 0.24375 | 347 ft | 22 kts | 222° |
| 2026-05-04 07:49 | 51.88451 | 0.24185 | 352 ft | 26 kts | 228° |
| 2026-05-04 07:50 | 51.88320 | 0.23994 | 348 ft | 25 kts | 222° |
| 2026-05-04 07:50 | 51.88198 | 0.23810 | 342 ft | 24 kts | 223° |
| 2026-05-04 07:50 | 51.88070 | 0.23619 | 337 ft | 25 kts | 224° |
| 2026-05-04 07:50 | 51.87952 | 0.23433 | 339 ft | 23 kts | 216° |
| 2026-05-04 07:51 | 51.87827 | 0.23252 | 339 ft | 26 kts | 222° |
| 2026-05-04 07:51 | 51.87729 | 0.23086 | 338 ft | 18 kts | 250° |
| 2026-05-04 07:51 | 51.87789 | 0.22934 | 337 ft | 16 kts | 313° |
| 2026-05-04 07:51 | 51.87870 | 0.22793 | 332 ft | 18 kts | 314° |
| 2026-05-04 07:52 | 51.87941 | 0.22681 | 332 ft | 11 kts | 334° |
| 2026-05-04 07:52 | 51.88006 | 0.22741 | 330 ft | 12 kts | 44° |
| 2026-05-04 07:52 | 51.88145 | 0.22947 | 330 ft | 57 kts | 43° |
| 2026-05-04 07:52 | 51.88600 | 0.23631 | 339 ft | 120 kts | 42° |
| 2026-05-04 07:53 | 51.89337 | 0.24722 | 453 ft | 159 kts | 40° |
| 2026-05-04 07:54 | 51.89582 | 0.38789 | 3999 ft | 258 kts | 116° |
| 2026-05-04 07:55 | 51.88776 | 0.41431 | 4761 ft | 265 kts | 116° |
| 2026-05-04 07:55 | 51.87965 | 0.44138 | 5505 ft | 271 kts | 116° |
| 2026-05-04 07:55 | 51.87150 | 0.46890 | 5906 ft | 272 kts | 116° |
| 2026-05-04 07:55 | 51.86335 | 0.49667 | 5985 ft | 275 kts | 117° |
| 2026-05-04 07:56 | 51.85511 | 0.52480 | 6100 ft | 278 kts | 116° |
| 2026-05-04 07:56 | 51.84675 | 0.55325 | 6839 ft | 279 kts | 117° |
| 2026-05-04 07:56 | 51.83837 | 0.58165 | 7650 ft | 281 kts | 116° |
| 2026-05-04 07:56 | 51.83178 | 0.61150 | 8464 ft | 286 kts | 104° |
| 2026-05-04 07:57 | 51.82938 | 0.64367 | 9277 ft | 290 kts | 95° |
| 2026-05-04 07:57 | 51.82705 | 0.66485 | 9771 ft | 291 kts | 113° |
| 2026-05-04 07:57 | 51.81585 | 0.69193 | 10401 ft | 296 kts | 134° |
| 2026-05-04 07:57 | 51.80107 | 0.71709 | 10597 ft | 321 kts | 136° |
| 2026-05-04 07:58 | 51.78493 | 0.74385 | 10793 ft | 344 kts | 135° |
| 2026-05-04 07:58 | 51.76788 | 0.77268 | 10965 ft | 367 kts | 135° |
| 2026-05-04 07:58 | 51.75006 | 0.80365 | 11239 ft | 383 kts | 134° |
| 2026-05-04 07:58 | 51.73198 | 0.83581 | 11807 ft | 389 kts | 133° |
| 2026-05-04 07:59 | 51.71387 | 0.86851 | 12484 ft | 392 kts | 133° |
| 2026-05-04 07:59 | 51.69570 | 0.90150 | 13187 ft | 395 kts | 133° |
| 2026-05-04 07:59 | 51.67744 | 0.93475 | 13855 ft | 399 kts | 133° |
| 2026-05-04 07:59 | 51.65896 | 0.96844 | 14461 ft | 402 kts | 134° |
| 2026-05-04 08:00 | 51.64032 | 1.00236 | 15043 ft | 407 kts | 134° |
| 2026-05-04 08:00 | 51.62147 | 1.03663 | 15691 ft | 410 kts | 134° |
| 2026-05-04 08:00 | 51.60250 | 1.07108 | 16348 ft | 413 kts | 134° |
| 2026-05-04 08:02 | 51.46491 | 1.31946 | 20137 ft | 439 kts | 134° |
| 2026-05-04 08:02 | 51.44448 | 1.35611 | 20605 ft | 443 kts | 134° |
| 2026-05-04 08:02 | 51.42426 | 1.39365 | 21053 ft | 447 kts | 132° |
| 2026-05-04 08:03 | 51.40489 | 1.43290 | 21480 ft | 452 kts | 130° |
| 2026-05-04 08:03 | 51.38578 | 1.47305 | 21911 ft | 456 kts | 130° |
| 2026-05-04 08:03 | 51.36661 | 1.51370 | 22361 ft | 459 kts | 130° |
| 2026-05-04 08:03 | 51.34728 | 1.55450 | 22813 ft | 461 kts | 130° |
| 2026-05-04 08:04 | 51.32945 | 1.59764 | 22966 ft | 471 kts | 121° |
| 2026-05-04 08:04 | 51.31662 | 1.64595 | 22998 ft | 475 kts | 110° |
| 2026-05-04 08:04 | 51.30713 | 1.69664 | 23007 ft | 477 kts | 109° |
| 2026-05-04 08:04 | 51.29776 | 1.74752 | 22996 ft | 477 kts | 109° |
| 2026-05-04 08:05 | 51.28829 | 1.79836 | 22998 ft | 477 kts | 109° |
| 2026-05-04 08:05 | 51.27868 | 1.84905 | 22998 ft | 477 kts | 109° |
| 2026-05-04 08:05 | 51.26892 | 1.89972 | 22995 ft | 477 kts | 109° |
| 2026-05-04 08:05 | 51.25904 | 1.95030 | 22982 ft | 477 kts | 110° |
| 2026-05-04 08:06 | 51.24910 | 2.00088 | 22995 ft | 478 kts | 110° |
| 2026-05-04 08:06 | 51.23910 | 2.05145 | 22999 ft | 478 kts | 110° |
| 2026-05-04 08:06 | 51.22907 | 2.10205 | 22993 ft | 478 kts | 110° |
| 2026-05-04 08:06 | 51.21902 | 2.15265 | 22992 ft | 479 kts | 110° |
| 2026-05-04 08:08 | 51.14813 | 2.50641 | 22984 ft | 477 kts | 111° |
| 2026-05-04 08:08 | 51.13795 | 2.55670 | 22985 ft | 477 kts | 111° |
| 2026-05-04 08:10 | 51.05603 | 2.95674 | 22991 ft | 473 kts | 112° |
| 2026-05-04 08:11 | 51.04578 | 3.00628 | 22991 ft | 473 kts | 112° |
| 2026-05-04 08:11 | 51.02532 | 3.10474 | 22989 ft | 472 kts | 112° |
| 2026-05-04 08:11 | 51.01500 | 3.15419 | 22990 ft | 471 kts | 112° |
| 2026-05-04 08:12 | 51.00468 | 3.20351 | 22990 ft | 471 kts | 112° |
| 2026-05-04 08:12 | 50.99432 | 3.25294 | 22986 ft | 472 kts | 112° |
| 2026-05-04 08:12 | 50.98394 | 3.30230 | 22964 ft | 472 kts | 112° |
| 2026-05-04 08:12 | 50.97357 | 3.35158 | 22977 ft | 471 kts | 112° |
| 2026-05-04 08:13 | 50.96318 | 3.40078 | 22975 ft | 471 kts | 112° |
| 2026-05-04 08:13 | 50.95277 | 3.44996 | 22977 ft | 470 kts | 112° |
| 2026-05-04 08:13 | 50.94235 | 3.49911 | 22984 ft | 470 kts | 112° |
| 2026-05-04 08:13 | 50.93191 | 3.54824 | 22977 ft | 470 kts | 112° |
| 2026-05-04 08:14 | 50.92148 | 3.59722 | 22989 ft | 470 kts | 112° |
| 2026-05-04 08:14 | 50.91102 | 3.64625 | 22988 ft | 470 kts | 112° |
| 2026-05-04 08:14 | 50.90103 | 3.69562 | 22994 ft | 470 kts | 111° |
| 2026-05-04 08:16 | 50.83407 | 4.04293 | 22992 ft | 472 kts | 111° |
| 2026-05-04 08:16 | 50.82433 | 4.09246 | 22986 ft | 472 kts | 111° |
| 2026-05-04 08:16 | 50.81455 | 4.14208 | 22999 ft | 472 kts | 111° |
| 2026-05-04 08:17 | 50.80476 | 4.19162 | 22991 ft | 472 kts | 111° |
| 2026-05-04 08:17 | 50.79494 | 4.24123 | 22986 ft | 472 kts | 111° |
| 2026-05-04 08:17 | 50.78514 | 4.29060 | 22996 ft | 471 kts | 111° |
| 2026-05-04 08:17 | 50.77533 | 4.33987 | 22994 ft | 470 kts | 111° |
| 2026-05-04 08:19 | 50.70674 | 4.68363 | 22972 ft | 469 kts | 111° |
| 2026-05-04 08:19 | 50.69726 | 4.73281 | 22987 ft | 469 kts | 111° |
| 2026-05-04 08:20 | 50.68775 | 4.78204 | 22989 ft | 469 kts | 111° |
| 2026-05-04 08:20 | 50.67821 | 4.83118 | 22992 ft | 469 kts | 111° |
| 2026-05-04 08:20 | 50.66860 | 4.88030 | 22999 ft | 469 kts | 111° |
| 2026-05-04 08:20 | 50.65895 | 4.92934 | 22999 ft | 469 kts | 112° |
| 2026-05-04 08:21 | 50.64906 | 4.97831 | 22998 ft | 469 kts | 112° |
| 2026-05-04 08:21 | 50.63904 | 5.02714 | 22999 ft | 469 kts | 112° |
| 2026-05-04 08:21 | 50.62893 | 5.07607 | 23000 ft | 469 kts | 112° |
| 2026-05-04 08:21 | 50.61884 | 5.12487 | 22996 ft | 470 kts | 112° |
| 2026-05-04 08:22 | 50.60888 | 5.17313 | 22988 ft | 469 kts | 112° |
| 2026-05-04 08:22 | 50.59864 | 5.22271 | 22998 ft | 470 kts | 112° |
| 2026-05-04 08:24 | 50.52776 | 5.56542 | 22999 ft | 473 kts | 108° |
| 2026-05-04 08:24 | 50.52390 | 5.61707 | 22998 ft | 482 kts | 92° |
| 2026-05-04 08:24 | 50.52711 | 5.66969 | 23008 ft | 486 kts | 85° |
| 2026-05-04 08:24 | 50.53246 | 5.72226 | 23001 ft | 487 kts | 83° |
| 2026-05-04 08:25 | 50.53826 | 5.77392 | 22988 ft | 487 kts | 83° |
| 2026-05-04 08:25 | 50.54426 | 5.82607 | 22789 ft | 482 kts | 83° |
| 2026-05-04 08:25 | 50.55025 | 5.87766 | 22510 ft | 476 kts | 83° |
| 2026-05-04 08:25 | 50.55617 | 5.92859 | 22243 ft | 473 kts | 83° |
| 2026-05-04 08:26 | 50.56206 | 5.97950 | 21980 ft | 472 kts | 83° |
| 2026-05-04 08:27 | 50.60107 | 6.33030 | 19649 ft | 453 kts | 83° |
| 2026-05-04 08:28 | 50.60624 | 6.37900 | 19200 ft | 450 kts | 83° |
| 2026-05-04 08:28 | 50.61132 | 6.42764 | 18750 ft | 450 kts | 83° |
| 2026-05-04 08:28 | 50.61630 | 6.47611 | 18268 ft | 445 kts | 83° |
| 2026-05-04 08:28 | 50.62114 | 6.52384 | 17742 ft | 438 kts | 83° |
| 2026-05-04 08:29 | 50.62593 | 6.57110 | 17216 ft | 437 kts | 83° |
| 2026-05-04 08:29 | 50.63076 | 6.61822 | 16693 ft | 436 kts | 83° |
| 2026-05-04 08:29 | 50.63560 | 6.66531 | 16179 ft | 434 kts | 83° |
| 2026-05-04 08:31 | 50.67104 | 6.97928 | 12606 ft | 381 kts | 66° |
| 2026-05-04 08:33 | 50.80786 | 6.98579 | 9442 ft | 306 kts | 323° |
| 2026-05-04 08:33 | 50.82518 | 6.96760 | 8922 ft | 300 kts | 323° |
| 2026-05-04 08:35 | 50.92797 | 6.82106 | 5404 ft | 274 kts | 313° |
| 2026-05-04 08:35 | 50.94183 | 6.80080 | 5011 ft | 270 kts | 326° |
| 2026-05-04 08:35 | 50.95930 | 6.79088 | 4616 ft | 268 kts | 355° |
| 2026-05-04 08:35 | 50.97721 | 6.79524 | 4239 ft | 264 kts | 24° |
| 2026-05-04 08:37 | 51.00627 | 6.92885 | 3012 ft | 213 kts | 103° |
| 2026-05-04 08:37 | 51.00191 | 6.95082 | 2973 ft | 204 kts | 126° |
| 2026-05-04 08:37 | 50.99179 | 6.96488 | 2998 ft | 188 kts | 147° |
| 2026-05-04 08:38 | 50.98253 | 6.97891 | 3015 ft | 181 kts | 133° |
| 2026-05-04 08:38 | 50.97374 | 6.99364 | 2736 ft | 183 kts | 139° |
| 2026-05-04 08:38 | 50.96448 | 7.00724 | 2476 ft | 177 kts | 140° |
| 2026-05-04 08:40 | 50.90912 | 7.08741 | 1027 ft | 146 kts | 141° |
| 2026-05-04 08:40 | 50.90162 | 7.09832 | 838 ft | 147 kts | 140° |
| 2026-05-04 08:40 | 50.89410 | 7.10925 | 649 ft | 146 kts | 136° |
| 2026-05-04 08:41 | 50.88662 | 7.12003 | 449 ft | 143 kts | 139° |
| 2026-05-04 08:41 | 50.87933 | 7.13071 | 255 ft | 141 kts | 137° |
| 2026-05-04 08:41 | 50.87297 | 7.13992 | 241 ft | 97 kts | 137° |
| 2026-05-04 08:41 | 50.86982 | 7.14447 | 255 ft | 36 kts | 136° |
| 2026-05-04 08:42 | 50.86873 | 7.14487 | 259 ft | 12 kts | 254° |
| 2026-05-04 08:42 | 50.86890 | 7.14323 | 257 ft | 15 kts | 278° |
| 2026-05-04 08:42 | 50.86900 | 7.14202 | 254 ft | 17 kts | 280° |
| 2026-05-04 08:42 | 50.86921 | 7.14096 | 254 ft | 11 kts | 298° |
| 2026-05-04 08:43 | 50.86988 | 7.13985 | 248 ft | 18 kts | 316° |
| 2026-05-04 08:43 | 50.87091 | 7.13837 | 241 ft | 22 kts | 317° |
| 2026-05-04 08:43 | 50.87214 | 7.13658 | 236 ft | 26 kts | 319° |
| 2026-05-04 08:43 | 50.87349 | 7.13462 | 232 ft | 28 kts | 317° |
| 2026-05-04 08:44 | 50.87485 | 7.13265 | 232 ft | 25 kts | 316° |
| 2026-05-04 08:44 | 50.87609 | 7.13087 | 232 ft | 23 kts | 317° |
| 2026-05-04 08:46 | 50.88181 | 7.12091 | 231 ft | 12 kts | 307° |
| 2026-05-04 08:46 | 50.88191 | 7.12051 | 231 ft | 6 kts | 256° |
| 2026-05-04 08:46 | 50.88165 | 7.12014 | 231 ft | 5 kts | 216° |
| 2026-05-04 08:46 | 50.88154 | 7.12001 | 231 ft | 0 kts | 216° |
| 2026-05-04 08:47 | 50.88153 | 7.12000 | 231 ft | 0 kts | 216° |